sensor_id;sensor_type;location;lat;lon;timestamp;temperature;humidity
6865;DHT22;3471;49.678;8.388;2023-08-31T00:02:06;16.40;99.90
6865;DHT22;3471;49.678;8.388;2023-08-31T00:04:32;16.40;99.90
6865;DHT22;3471;49.678;8.388;2023-08-31T00:06:58;16.40;99.90
6865;DHT22;3471;49.678;8.388;2023-08-31T00:09:24;16.40;99.90
6865;DHT22;3471;49.678;8.388;2023-08-31T00:11:50;16.40;99.90
6865;DHT22;3471;49.678;8.388;2023-08-31T00:14:17;16.30;99.90
6865;DHT22;3471;49.678;8.388;2023-08-31T00:16:43;16.30;99.90
6865;DHT22;3471;49.678;8.388;2023-08-31T00:19:11;16.30;99.90
6865;DHT22;3471;49.678;8.388;2023-08-31T00:21:37;16.30;99.90
6865;DHT22;3471;49.678;8.388;2023-08-31T00:24:02;16.30;99.90
6865;DHT22;3471;49.678;8.388;2023-08-31T00:26:28;16.30;99.90
6865;DHT22;3471;49.678;8.388;2023-08-31T00:28:56;16.30;99.90
6865;DHT22;3471;49.678;8.388;2023-08-31T00:31:22;16.20;99.90
6865;DHT22;3471;49.678;8.388;2023-08-31T00:33:48;16.20;99.90
6865;DHT22;3471;49.678;8.388;2023-08-31T00:36:14;16.20;99.90
6865;DHT22;3471;49.678;8.388;2023-08-31T00:38:40;16.20;99.90
6865;DHT22;3471;49.678;8.388;2023-08-31T00:41:05;16.20;99.90
6865;DHT22;3471;49.678;8.388;2023-08-31T00:43:31;16.20;99.90
6865;DHT22;3471;49.678;8.388;2023-08-31T00:45:57;16.20;99.90
6865;DHT22;3471;49.678;8.388;2023-08-31T00:48:24;16.20;99.90
6865;DHT22;3471;49.678;8.388;2023-08-31T00:50:50;16.20;99.90
6865;DHT22;3471;49.678;8.388;2023-08-31T00:53:17;16.20;99.90
6865;DHT22;3471;49.678;8.388;2023-08-31T00:55:44;16.20;99.90
6865;DHT22;3471;49.678;8.388;2023-08-31T00:58:10;16.20;99.90
6865;DHT22;3471;49.678;8.388;2023-08-31T01:11:37;16.20;99.90
6865;DHT22;3471;49.678;8.388;2023-08-31T01:14:11;16.20;99.90
6865;DHT22;3471;49.678;8.388;2023-08-31T01:16:39;16.20;99.90
6865;DHT22;3471;49.678;8.388;2023-08-31T01:19:12;16.10;99.90
6865;DHT22;3471;49.678;8.388;2023-08-31T01:21:40;16.00;99.90
6865;DHT22;3471;49.678;8.388;2023-08-31T01:24:07;16.00;99.90
6865;DHT22;3471;49.678;8.388;2023-08-31T01:26:34;15.90;99.90
6865;DHT22;3471;49.678;8.388;2023-08-31T01:29:00;15.90;99.90
6865;DHT22;3471;49.678;8.388;2023-08-31T01:31:25;15.80;99.90
6865;DHT22;3471;49.678;8.388;2023-08-31T01:33:51;15.80;99.90
6865;DHT22;3471;49.678;8.388;2023-08-31T01:36:29;15.80;99.90
6865;DHT22;3471;49.678;8.388;2023-08-31T01:41:46;15.70;99.90
6865;DHT22;3471;49.678;8.388;2023-08-31T01:44:15;15.70;99.90
6865;DHT22;3471;49.678;8.388;2023-08-31T01:46:45;15.70;99.90
6865;DHT22;3471;49.678;8.388;2023-08-31T01:49:11;15.80;99.90
6865;DHT22;3471;49.678;8.388;2023-08-31T01:51:36;15.80;99.90
6865;DHT22;3471;49.678;8.388;2023-08-31T01:54:02;15.80;99.90
6865;DHT22;3471;49.678;8.388;2023-08-31T01:56:28;15.90;99.90
6865;DHT22;3471;49.678;8.388;2023-08-31T01:58:54;15.90;99.90
6865;DHT22;3471;49.678;8.388;2023-08-31T02:01:19;15.90;99.90
6865;DHT22;3471;49.678;8.388;2023-08-31T02:03:45;15.90;99.90
6865;DHT22;3471;49.678;8.388;2023-08-31T02:06:11;15.80;99.90
6865;DHT22;3471;49.678;8.388;2023-08-31T02:08:36;15.80;99.90
6865;DHT22;3471;49.678;8.388;2023-08-31T02:11:02;15.80;99.90
6865;DHT22;3471;49.678;8.388;2023-08-31T02:13:29;15.80;99.90
6865;DHT22;3471;49.678;8.388;2023-08-31T02:15:55;15.80;99.90
6865;DHT22;3471;49.678;8.388;2023-08-31T02:18:20;15.70;99.90
6865;DHT22;3471;49.678;8.388;2023-08-31T02:20:46;15.70;99.90
6865;DHT22;3471;49.678;8.388;2023-08-31T02:23:12;15.70;99.90
6865;DHT22;3471;49.678;8.388;2023-08-31T02:25:38;15.70;99.90
6865;DHT22;3471;49.678;8.388;2023-08-31T02:28:03;15.70;99.90
6865;DHT22;3471;49.678;8.388;2023-08-31T02:30:29;15.70;99.90
6865;DHT22;3471;49.678;8.388;2023-08-31T02:32:55;15.70;99.90
6865;DHT22;3471;49.678;8.388;2023-08-31T02:35:20;15.70;99.90
6865;DHT22;3471;49.678;8.388;2023-08-31T02:37:46;15.70;99.90
6865;DHT22;3471;49.678;8.388;2023-08-31T02:40:12;15.70;99.90
6865;DHT22;3471;49.678;8.388;2023-08-31T02:42:37;15.70;99.90
6865;DHT22;3471;49.678;8.388;2023-08-31T02:45:03;15.70;99.90
6865;DHT22;3471;49.678;8.388;2023-08-31T02:47:29;15.60;99.90
6865;DHT22;3471;49.678;8.388;2023-08-31T02:49:55;15.60;99.90
6865;DHT22;3471;49.678;8.388;2023-08-31T02:52:21;15.60;99.90
6865;DHT22;3471;49.678;8.388;2023-08-31T02:54:47;15.60;99.90
6865;DHT22;3471;49.678;8.388;2023-08-31T02:57:12;15.60;99.90
6865;DHT22;3471;49.678;8.388;2023-08-31T02:59:38;15.70;99.90
6865;DHT22;3471;49.678;8.388;2023-08-31T03:02:04;15.60;99.90
6865;DHT22;3471;49.678;8.388;2023-08-31T03:04:29;15.60;99.90
6865;DHT22;3471;49.678;8.388;2023-08-31T03:06:56;15.50;99.90
6865;DHT22;3471;49.678;8.388;2023-08-31T03:09:21;15.50;99.90
6865;DHT22;3471;49.678;8.388;2023-08-31T03:11:47;15.50;99.90
6865;DHT22;3471;49.678;8.388;2023-08-31T03:14:12;15.50;99.90
6865;DHT22;3471;49.678;8.388;2023-08-31T03:16:38;15.50;99.90
6865;DHT22;3471;49.678;8.388;2023-08-31T03:19:04;15.40;99.90
6865;DHT22;3471;49.678;8.388;2023-08-31T03:21:30;15.40;99.90
6865;DHT22;3471;49.678;8.388;2023-08-31T03:23:56;15.30;99.90
6865;DHT22;3471;49.678;8.388;2023-08-31T03:26:21;15.30;99.90
6865;DHT22;3471;49.678;8.388;2023-08-31T03:28:47;15.20;99.90
6865;DHT22;3471;49.678;8.388;2023-08-31T03:31:12;15.20;99.90
6865;DHT22;3471;49.678;8.388;2023-08-31T03:33:38;15.20;99.90
6865;DHT22;3471;49.678;8.388;2023-08-31T03:36:04;15.20;99.90
6865;DHT22;3471;49.678;8.388;2023-08-31T03:38:31;15.20;99.90
6865;DHT22;3471;49.678;8.388;2023-08-31T03:40:57;15.20;99.90
6865;DHT22;3471;49.678;8.388;2023-08-31T03:43:23;15.20;99.90
6865;DHT22;3471;49.678;8.388;2023-08-31T03:45:49;15.20;99.90
6865;DHT22;3471;49.678;8.388;2023-08-31T03:48:21;15.20;99.90
6865;DHT22;3471;49.678;8.388;2023-08-31T03:50:49;15.20;99.90
6865;DHT22;3471;49.678;8.388;2023-08-31T03:53:15;15.20;99.90
6865;DHT22;3471;49.678;8.388;2023-08-31T03:55:41;15.20;99.90
6865;DHT22;3471;49.678;8.388;2023-08-31T03:58:06;15.20;99.90
6865;DHT22;3471;49.678;8.388;2023-08-31T04:00:32;15.10;99.90
6865;DHT22;3471;49.678;8.388;2023-08-31T04:02:57;15.10;99.90
6865;DHT22;3471;49.678;8.388;2023-08-31T04:05:23;15.10;99.90
6865;DHT22;3471;49.678;8.388;2023-08-31T04:07:49;15.10;99.90
6865;DHT22;3471;49.678;8.388;2023-08-31T04:10:14;15.10;99.90
6865;DHT22;3471;49.678;8.388;2023-08-31T04:12:40;15.10;99.90
6865;DHT22;3471;49.678;8.388;2023-08-31T04:15:08;15.10;99.90
6865;DHT22;3471;49.678;8.388;2023-08-31T04:17:34;15.00;99.90
6865;DHT22;3471;49.678;8.388;2023-08-31T04:20:00;15.00;99.90
6865;DHT22;3471;49.678;8.388;2023-08-31T04:22:26;15.00;99.90
6865;DHT22;3471;49.678;8.388;2023-08-31T04:24:53;15.00;99.90
6865;DHT22;3471;49.678;8.388;2023-08-31T04:27:18;15.00;99.90
6865;DHT22;3471;49.678;8.388;2023-08-31T04:29:44;14.90;99.90
6865;DHT22;3471;49.678;8.388;2023-08-31T04:32:10;14.90;99.90
6865;DHT22;3471;49.678;8.388;2023-08-31T04:34:35;14.90;99.90
6865;DHT22;3471;49.678;8.388;2023-08-31T04:37:01;14.80;99.90
6865;DHT22;3471;49.678;8.388;2023-08-31T04:39:27;14.80;99.90
6865;DHT22;3471;49.678;8.388;2023-08-31T04:41:53;14.80;99.90
6865;DHT22;3471;49.678;8.388;2023-08-31T04:44:18;14.70;99.90
6865;DHT22;3471;49.678;8.388;2023-08-31T04:46:44;14.70;99.90
6865;DHT22;3471;49.678;8.388;2023-08-31T04:49:09;14.60;99.90
6865;DHT22;3471;49.678;8.388;2023-08-31T04:51:35;14.60;99.90
6865;DHT22;3471;49.678;8.388;2023-08-31T04:54:04;14.60;99.90
6865;DHT22;3471;49.678;8.388;2023-08-31T04:56:32;14.60;99.90
6865;DHT22;3471;49.678;8.388;2023-08-31T04:58:58;14.50;99.90
6865;DHT22;3471;49.678;8.388;2023-08-31T05:01:24;14.50;99.90
6865;DHT22;3471;49.678;8.388;2023-08-31T05:03:50;14.50;99.90
6865;DHT22;3471;49.678;8.388;2023-08-31T05:06:16;14.50;99.90
6865;DHT22;3471;49.678;8.388;2023-08-31T05:08:41;14.60;99.90
6865;DHT22;3471;49.678;8.388;2023-08-31T05:11:07;14.60;99.90
6865;DHT22;3471;49.678;8.388;2023-08-31T05:13:33;14.70;99.90
6865;DHT22;3471;49.678;8.388;2023-08-31T05:15:59;14.80;99.90
6865;DHT22;3471;49.678;8.388;2023-08-31T05:18:24;14.80;99.90
6865;DHT22;3471;49.678;8.388;2023-08-31T05:20:50;14.90;99.90
6865;DHT22;3471;49.678;8.388;2023-08-31T05:23:15;14.90;99.90
6865;DHT22;3471;49.678;8.388;2023-08-31T05:25:45;15.00;99.90
6865;DHT22;3471;49.678;8.388;2023-08-31T05:28:10;15.00;99.90
6865;DHT22;3471;49.678;8.388;2023-08-31T05:30:36;15.10;99.90
6865;DHT22;3471;49.678;8.388;2023-08-31T05:33:02;15.10;99.90
6865;DHT22;3471;49.678;8.388;2023-08-31T05:35:29;15.20;99.90
6865;DHT22;3471;49.678;8.388;2023-08-31T05:37:55;15.20;99.90
6865;DHT22;3471;49.678;8.388;2023-08-31T05:40:21;15.30;99.90
6865;DHT22;3471;49.678;8.388;2023-08-31T05:42:47;15.30;99.90
6865;DHT22;3471;49.678;8.388;2023-08-31T05:45:12;15.30;99.90
6865;DHT22;3471;49.678;8.388;2023-08-31T05:47:40;15.30;99.90
6865;DHT22;3471;49.678;8.388;2023-08-31T05:50:06;15.30;99.90
6865;DHT22;3471;49.678;8.388;2023-08-31T05:52:32;15.40;99.90
6865;DHT22;3471;49.678;8.388;2023-08-31T05:54:58;15.40;99.90
6865;DHT22;3471;49.678;8.388;2023-08-31T05:57:23;15.50;99.90
6865;DHT22;3471;49.678;8.388;2023-08-31T05:59:49;15.60;99.90
6865;DHT22;3471;49.678;8.388;2023-08-31T06:02:14;15.70;99.90
6865;DHT22;3471;49.678;8.388;2023-08-31T06:04:41;15.80;99.90
6865;DHT22;3471;49.678;8.388;2023-08-31T06:07:06;15.80;99.90
6865;DHT22;3471;49.678;8.388;2023-08-31T06:09:32;15.90;99.90
6865;DHT22;3471;49.678;8.388;2023-08-31T06:11:57;16.00;99.90
6865;DHT22;3471;49.678;8.388;2023-08-31T06:14:23;16.00;99.90
6865;DHT22;3471;49.678;8.388;2023-08-31T06:16:48;16.10;99.90
6865;DHT22;3471;49.678;8.388;2023-08-31T06:19:14;16.20;99.90
6865;DHT22;3471;49.678;8.388;2023-08-31T06:21:41;16.20;99.90
6865;DHT22;3471;49.678;8.388;2023-08-31T06:24:07;16.20;99.90
6865;DHT22;3471;49.678;8.388;2023-08-31T06:26:35;16.20;99.90
6865;DHT22;3471;49.678;8.388;2023-08-31T06:29:01;16.20;99.90
6865;DHT22;3471;49.678;8.388;2023-08-31T06:31:29;16.20;99.90
6865;DHT22;3471;49.678;8.388;2023-08-31T06:33:55;16.20;99.90
6865;DHT22;3471;49.678;8.388;2023-08-31T06:36:20;16.20;99.90
6865;DHT22;3471;49.678;8.388;2023-08-31T06:38:46;16.20;99.90
6865;DHT22;3471;49.678;8.388;2023-08-31T06:41:12;16.20;99.90
6865;DHT22;3471;49.678;8.388;2023-08-31T06:43:38;16.10;99.90
6865;DHT22;3471;49.678;8.388;2023-08-31T06:46:03;16.10;99.90
6865;DHT22;3471;49.678;8.388;2023-08-31T06:48:29;16.10;99.90
6865;DHT22;3471;49.678;8.388;2023-08-31T06:50:55;16.10;99.90
6865;DHT22;3471;49.678;8.388;2023-08-31T06:53:21;16.10;99.90
6865;DHT22;3471;49.678;8.388;2023-08-31T06:55:47;16.10;99.90
6865;DHT22;3471;49.678;8.388;2023-08-31T06:58:12;16.10;99.90
6865;DHT22;3471;49.678;8.388;2023-08-31T07:00:38;16.20;99.90
6865;DHT22;3471;49.678;8.388;2023-08-31T07:03:04;16.30;99.90
6865;DHT22;3471;49.678;8.388;2023-08-31T07:05:34;16.50;99.90
6865;DHT22;3471;49.678;8.388;2023-08-31T07:08:01;16.70;99.90
6865;DHT22;3471;49.678;8.388;2023-08-31T07:10:29;16.90;99.90
6865;DHT22;3471;49.678;8.388;2023-08-31T07:12:54;17.20;99.90
6865;DHT22;3471;49.678;8.388;2023-08-31T07:15:20;17.40;99.90
6865;DHT22;3471;49.678;8.388;2023-08-31T07:17:46;17.60;99.90
6865;DHT22;3471;49.678;8.388;2023-08-31T07:20:11;17.70;99.90
6865;DHT22;3471;49.678;8.388;2023-08-31T07:22:37;17.70;99.90
6865;DHT22;3471;49.678;8.388;2023-08-31T07:25:04;17.60;99.90
6865;DHT22;3471;49.678;8.388;2023-08-31T07:27:30;17.70;99.90
6865;DHT22;3471;49.678;8.388;2023-08-31T07:29:55;17.60;99.90
6865;DHT22;3471;49.678;8.388;2023-08-31T07:32:21;17.50;99.90
6865;DHT22;3471;49.678;8.388;2023-08-31T07:34:47;17.50;99.90
6865;DHT22;3471;49.678;8.388;2023-08-31T07:37:13;17.50;99.90
6865;DHT22;3471;49.678;8.388;2023-08-31T07:39:38;17.50;99.90
6865;DHT22;3471;49.678;8.388;2023-08-31T07:42:05;17.50;99.90
6865;DHT22;3471;49.678;8.388;2023-08-31T07:44:31;17.40;99.90
6865;DHT22;3471;49.678;8.388;2023-08-31T07:46:56;17.40;99.90
6865;DHT22;3471;49.678;8.388;2023-08-31T07:49:22;17.40;99.90
6865;DHT22;3471;49.678;8.388;2023-08-31T07:51:48;17.40;99.90
6865;DHT22;3471;49.678;8.388;2023-08-31T07:54:23;17.60;99.90
6865;DHT22;3471;49.678;8.388;2023-08-31T07:56:49;17.80;99.90
6865;DHT22;3471;49.678;8.388;2023-08-31T07:59:14;17.90;99.90
6865;DHT22;3471;49.678;8.388;2023-08-31T08:01:40;17.90;99.90
6865;DHT22;3471;49.678;8.388;2023-08-31T08:04:09;18.00;99.90
6865;DHT22;3471;49.678;8.388;2023-08-31T08:06:35;18.10;99.90
6865;DHT22;3471;49.678;8.388;2023-08-31T08:09:00;18.10;99.90
6865;DHT22;3471;49.678;8.388;2023-08-31T08:11:26;18.20;99.90
6865;DHT22;3471;49.678;8.388;2023-08-31T08:13:51;18.30;99.90
6865;DHT22;3471;49.678;8.388;2023-08-31T08:16:17;18.30;99.90
6865;DHT22;3471;49.678;8.388;2023-08-31T08:18:42;18.30;99.90
6865;DHT22;3471;49.678;8.388;2023-08-31T08:21:08;18.20;99.90
6865;DHT22;3471;49.678;8.388;2023-08-31T08:23:33;18.20;99.90
6865;DHT22;3471;49.678;8.388;2023-08-31T08:25:59;18.20;99.90
6865;DHT22;3471;49.678;8.388;2023-08-31T08:28:25;18.30;99.90
6865;DHT22;3471;49.678;8.388;2023-08-31T08:30:51;18.40;99.90
6865;DHT22;3471;49.678;8.388;2023-08-31T08:33:17;18.60;99.90
6865;DHT22;3471;49.678;8.388;2023-08-31T08:35:43;18.70;99.90
6865;DHT22;3471;49.678;8.388;2023-08-31T08:38:08;18.90;99.90
6865;DHT22;3471;49.678;8.388;2023-08-31T08:40:34;19.00;99.90
6865;DHT22;3471;49.678;8.388;2023-08-31T08:43:01;19.00;99.90
6865;DHT22;3471;49.678;8.388;2023-08-31T08:45:35;19.10;99.90
6865;DHT22;3471;49.678;8.388;2023-08-31T08:48:05;19.10;99.90
6865;DHT22;3471;49.678;8.388;2023-08-31T08:50:34;19.20;99.90
6865;DHT22;3471;49.678;8.388;2023-08-31T08:53:03;19.10;99.90
6865;DHT22;3471;49.678;8.388;2023-08-31T08:55:29;19.20;99.90
6865;DHT22;3471;49.678;8.388;2023-08-31T08:57:57;19.30;99.90
6865;DHT22;3471;49.678;8.388;2023-08-31T09:00:23;19.40;99.90
6865;DHT22;3471;49.678;8.388;2023-08-31T09:02:48;19.50;99.90
6865;DHT22;3471;49.678;8.388;2023-08-31T09:05:14;19.50;99.90
6865;DHT22;3471;49.678;8.388;2023-08-31T09:07:59;19.50;99.90
6865;DHT22;3471;49.678;8.388;2023-08-31T09:10:36;19.50;99.90
6865;DHT22;3471;49.678;8.388;2023-08-31T09:13:05;19.60;99.90
6865;DHT22;3471;49.678;8.388;2023-08-31T09:15:45;19.60;99.90
6865;DHT22;3471;49.678;8.388;2023-08-31T09:18:24;19.70;99.90
6865;DHT22;3471;49.678;8.388;2023-08-31T09:20:50;19.80;99.90
6865;DHT22;3471;49.678;8.388;2023-08-31T09:23:17;20.00;99.90
6865;DHT22;3471;49.678;8.388;2023-08-31T09:25:47;20.30;99.90
6865;DHT22;3471;49.678;8.388;2023-08-31T09:28:26;20.40;99.90
6865;DHT22;3471;49.678;8.388;2023-08-31T09:30:52;20.30;99.90
6865;DHT22;3471;49.678;8.388;2023-08-31T09:33:27;20.30;99.90
6865;DHT22;3471;49.678;8.388;2023-08-31T09:35:56;20.20;99.90
6865;DHT22;3471;49.678;8.388;2023-08-31T09:38:22;20.30;99.90
6865;DHT22;3471;49.678;8.388;2023-08-31T09:40:47;20.30;99.90
6865;DHT22;3471;49.678;8.388;2023-08-31T09:43:20;20.40;99.90
6865;DHT22;3471;49.678;8.388;2023-08-31T09:45:47;20.50;99.90
6865;DHT22;3471;49.678;8.388;2023-08-31T09:48:14;20.70;99.90
6865;DHT22;3471;49.678;8.388;2023-08-31T09:50:43;20.90;99.90
6865;DHT22;3471;49.678;8.388;2023-08-31T09:53:10;21.20;99.90
6865;DHT22;3471;49.678;8.388;2023-08-31T09:55:38;21.50;99.90
6865;DHT22;3471;49.678;8.388;2023-08-31T09:58:07;21.90;99.90
6865;DHT22;3471;49.678;8.388;2023-08-31T10:00:36;22.00;99.90
6865;DHT22;3471;49.678;8.388;2023-08-31T10:03:04;22.00;99.90
6865;DHT22;3471;49.678;8.388;2023-08-31T10:05:30;21.90;99.90
6865;DHT22;3471;49.678;8.388;2023-08-31T10:07:57;21.90;99.90
6865;DHT22;3471;49.678;8.388;2023-08-31T10:10:24;21.90;99.90
6865;DHT22;3471;49.678;8.388;2023-08-31T10:12:50;21.90;99.90
6865;DHT22;3471;49.678;8.388;2023-08-31T10:15:17;22.00;99.90
6865;DHT22;3471;49.678;8.388;2023-08-31T10:17:43;22.10;99.90
6865;DHT22;3471;49.678;8.388;2023-08-31T10:20:11;22.30;99.90
6865;DHT22;3471;49.678;8.388;2023-08-31T10:22:37;22.40;99.90
6865;DHT22;3471;49.678;8.388;2023-08-31T10:25:04;22.40;99.90
6865;DHT22;3471;49.678;8.388;2023-08-31T10:27:42;22.50;99.90
6865;DHT22;3471;49.678;8.388;2023-08-31T10:32:42;22.60;99.90
6865;DHT22;3471;49.678;8.388;2023-08-31T10:35:08;22.70;99.90
6865;DHT22;3471;49.678;8.388;2023-08-31T10:37:34;22.90;99.90
6865;DHT22;3471;49.678;8.388;2023-08-31T10:40:08;23.00;99.90
6865;DHT22;3471;49.678;8.388;2023-08-31T10:42:42;23.10;99.90
6865;DHT22;3471;49.678;8.388;2023-08-31T10:45:08;23.20;99.90
6865;DHT22;3471;49.678;8.388;2023-08-31T10:47:41;23.10;99.90
6865;DHT22;3471;49.678;8.388;2023-08-31T10:50:41;23.10;99.90
6865;DHT22;3471;49.678;8.388;2023-08-31T10:53:10;23.20;99.90
6865;DHT22;3471;49.678;8.388;2023-08-31T10:55:52;23.40;99.90
6865;DHT22;3471;49.678;8.388;2023-08-31T10:58:18;23.50;99.90
6865;DHT22;3471;49.678;8.388;2023-08-31T11:00:51;23.60;99.90
6865;DHT22;3471;49.678;8.388;2023-08-31T11:03:17;23.70;99.90
6865;DHT22;3471;49.678;8.388;2023-08-31T11:05:52;23.80;99.90
6865;DHT22;3471;49.678;8.388;2023-08-31T11:08:22;23.70;99.90
6865;DHT22;3471;49.678;8.388;2023-08-31T11:10:49;23.60;99.90
6865;DHT22;3471;49.678;8.388;2023-08-31T11:13:22;23.30;99.60
6865;DHT22;3471;49.678;8.388;2023-08-31T11:15:48;23.10;99.10
6865;DHT22;3471;49.678;8.388;2023-08-31T11:18:14;23.10;99.30
6865;DHT22;3471;49.678;8.388;2023-08-31T11:20:43;22.90;97.50
6865;DHT22;3471;49.678;8.388;2023-08-31T11:23:09;22.70;97.60
6865;DHT22;3471;49.678;8.388;2023-08-31T11:25:35;22.70;99.30
6865;DHT22;3471;49.678;8.388;2023-08-31T11:28:03;22.90;99.10
6865;DHT22;3471;49.678;8.388;2023-08-31T11:30:33;23.00;97.70
6865;DHT22;3471;49.678;8.388;2023-08-31T11:33:03;23.10;98.30
6865;DHT22;3471;49.678;8.388;2023-08-31T11:35:38;23.30;99.50
6865;DHT22;3471;49.678;8.388;2023-08-31T11:38:06;23.40;98.70
6865;DHT22;3471;49.678;8.388;2023-08-31T11:40:32;23.40;98.50
6865;DHT22;3471;49.678;8.388;2023-08-31T11:42:58;23.40;98.20
6865;DHT22;3471;49.678;8.388;2023-08-31T11:45:29;23.40;98.80
6865;DHT22;3471;49.678;8.388;2023-08-31T11:47:56;23.20;97.30
6865;DHT22;3471;49.678;8.388;2023-08-31T11:50:22;22.90;97.60
6865;DHT22;3471;49.678;8.388;2023-08-31T11:52:49;22.90;98.70
6865;DHT22;3471;49.678;8.388;2023-08-31T11:55:16;22.90;99.40
6865;DHT22;3471;49.678;8.388;2023-08-31T11:57:53;23.30;99.90
6865;DHT22;3471;49.678;8.388;2023-08-31T12:00:23;23.60;99.20
6865;DHT22;3471;49.678;8.388;2023-08-31T12:03:01;23.80;98.10
6865;DHT22;3471;49.678;8.388;2023-08-31T12:05:27;23.70;98.80
6865;DHT22;3471;49.678;8.388;2023-08-31T12:07:55;23.50;98.60
6865;DHT22;3471;49.678;8.388;2023-08-31T12:10:20;23.00;98.50
6865;DHT22;3471;49.678;8.388;2023-08-31T12:12:46;22.60;99.10
6865;DHT22;3471;49.678;8.388;2023-08-31T12:15:11;22.40;99.50
6865;DHT22;3471;49.678;8.388;2023-08-31T12:17:38;22.20;99.90
6865;DHT22;3471;49.678;8.388;2023-08-31T12:20:05;21.90;99.90
6865;DHT22;3471;49.678;8.388;2023-08-31T12:22:31;21.90;99.90
6865;DHT22;3471;49.678;8.388;2023-08-31T12:24:57;22.00;99.90
6865;DHT22;3471;49.678;8.388;2023-08-31T12:27:23;22.50;99.90
6865;DHT22;3471;49.678;8.388;2023-08-31T12:29:48;23.10;99.90
6865;DHT22;3471;49.678;8.388;2023-08-31T12:32:15;23.70;99.90
6865;DHT22;3471;49.678;8.388;2023-08-31T12:34:42;24.10;99.10
6865;DHT22;3471;49.678;8.388;2023-08-31T12:37:08;24.10;98.60
6865;DHT22;3471;49.678;8.388;2023-08-31T12:39:33;24.10;98.10
6865;DHT22;3471;49.678;8.388;2023-08-31T12:41:59;23.90;98.40
6865;DHT22;3471;49.678;8.388;2023-08-31T12:44:25;23.70;99.20
6865;DHT22;3471;49.678;8.388;2023-08-31T12:46:51;23.70;99.80
6865;DHT22;3471;49.678;8.388;2023-08-31T12:49:17;23.50;99.40
6865;DHT22;3471;49.678;8.388;2023-08-31T12:51:43;23.40;99.00
6865;DHT22;3471;49.678;8.388;2023-08-31T12:54:09;23.40;99.30
6865;DHT22;3471;49.678;8.388;2023-08-31T12:56:34;23.30;99.90
6865;DHT22;3471;49.678;8.388;2023-08-31T12:59:00;23.30;99.90
6865;DHT22;3471;49.678;8.388;2023-08-31T13:01:25;23.10;99.90
6865;DHT22;3471;49.678;8.388;2023-08-31T13:03:51;23.00;99.50
6865;DHT22;3471;49.678;8.388;2023-08-31T13:06:18;22.80;99.30
6865;DHT22;3471;49.678;8.388;2023-08-31T13:08:44;22.70;99.30
6865;DHT22;3471;49.678;8.388;2023-08-31T13:11:11;22.60;99.90
6865;DHT22;3471;49.678;8.388;2023-08-31T13:13:38;22.60;99.70
6865;DHT22;3471;49.678;8.388;2023-08-31T13:16:04;22.60;99.00
6865;DHT22;3471;49.678;8.388;2023-08-31T13:18:29;22.50;98.90
6865;DHT22;3471;49.678;8.388;2023-08-31T13:20:55;22.50;99.10
6865;DHT22;3471;49.678;8.388;2023-08-31T13:23:22;22.90;99.90
6865;DHT22;3471;49.678;8.388;2023-08-31T13:25:48;23.70;99.90
6865;DHT22;3471;49.678;8.388;2023-08-31T13:28:14;24.40;97.70
6865;DHT22;3471;49.678;8.388;2023-08-31T13:30:39;24.70;97.60
6865;DHT22;3471;49.678;8.388;2023-08-31T13:33:06;24.50;97.50
6865;DHT22;3471;49.678;8.388;2023-08-31T13:35:33;24.30;97.50
6865;DHT22;3471;49.678;8.388;2023-08-31T13:37:58;24.00;98.20
6865;DHT22;3471;49.678;8.388;2023-08-31T13:40:24;23.70;98.20
6865;DHT22;3471;49.678;8.388;2023-08-31T13:42:58;23.60;99.20
6865;DHT22;3471;49.678;8.388;2023-08-31T13:45:29;23.50;99.00
6865;DHT22;3471;49.678;8.388;2023-08-31T13:47:54;23.40;98.70
6865;DHT22;3471;49.678;8.388;2023-08-31T13:50:20;23.30;98.60
6865;DHT22;3471;49.678;8.388;2023-08-31T13:52:46;23.30;99.10
6865;DHT22;3471;49.678;8.388;2023-08-31T13:55:12;23.60;98.60
6865;DHT22;3471;49.678;8.388;2023-08-31T13:57:40;24.00;98.80
6865;DHT22;3471;49.678;8.388;2023-08-31T14:00:06;24.30;98.30
6865;DHT22;3471;49.678;8.388;2023-08-31T14:02:35;24.50;98.80
6865;DHT22;3471;49.678;8.388;2023-08-31T14:05:01;24.70;97.80
6865;DHT22;3471;49.678;8.388;2023-08-31T14:07:27;24.80;98.90
6865;DHT22;3471;49.678;8.388;2023-08-31T14:09:53;25.20;98.00
6865;DHT22;3471;49.678;8.388;2023-08-31T14:12:18;25.40;97.30
6865;DHT22;3471;49.678;8.388;2023-08-31T14:14:45;25.30;97.30
6865;DHT22;3471;49.678;8.388;2023-08-31T14:17:11;25.20;97.40
6865;DHT22;3471;49.678;8.388;2023-08-31T14:19:37;24.90;97.10
6865;DHT22;3471;49.678;8.388;2023-08-31T14:22:04;24.50;97.80
6865;DHT22;3471;49.678;8.388;2023-08-31T14:24:30;24.40;98.90
6865;DHT22;3471;49.678;8.388;2023-08-31T14:26:56;24.60;99.20
6865;DHT22;3471;49.678;8.388;2023-08-31T14:29:22;25.20;98.10
6865;DHT22;3471;49.678;8.388;2023-08-31T14:31:48;25.60;96.40
6865;DHT22;3471;49.678;8.388;2023-08-31T14:34:14;25.80;96.60
6865;DHT22;3471;49.678;8.388;2023-08-31T14:36:39;25.70;96.40
6865;DHT22;3471;49.678;8.388;2023-08-31T14:39:05;25.70;96.80
6865;DHT22;3471;49.678;8.388;2023-08-31T14:41:31;25.70;96.30
6865;DHT22;3471;49.678;8.388;2023-08-31T14:43:56;25.60;96.40
6865;DHT22;3471;49.678;8.388;2023-08-31T14:46:22;25.40;95.90
6865;DHT22;3471;49.678;8.388;2023-08-31T14:48:49;25.50;96.00
6865;DHT22;3471;49.678;8.388;2023-08-31T14:51:15;25.80;95.00
6865;DHT22;3471;49.678;8.388;2023-08-31T14:53:41;26.20;94.70
6865;DHT22;3471;49.678;8.388;2023-08-31T14:56:07;26.20;95.20
6865;DHT22;3471;49.678;8.388;2023-08-31T14:58:33;26.10;94.90
6865;DHT22;3471;49.678;8.388;2023-08-31T15:00:59;25.70;94.50
6865;DHT22;3471;49.678;8.388;2023-08-31T15:03:24;25.20;95.50
6865;DHT22;3471;49.678;8.388;2023-08-31T15:05:50;24.80;96.00
6865;DHT22;3471;49.678;8.388;2023-08-31T15:08:16;24.40;96.60
6865;DHT22;3471;49.678;8.388;2023-08-31T15:10:42;24.00;97.40
6865;DHT22;3471;49.678;8.388;2023-08-31T15:13:08;23.70;98.40
6865;DHT22;3471;49.678;8.388;2023-08-31T15:15:33;23.60;98.30
6865;DHT22;3471;49.678;8.388;2023-08-31T15:17:59;23.60;98.60
6865;DHT22;3471;49.678;8.388;2023-08-31T15:20:25;23.50;98.30
6865;DHT22;3471;49.678;8.388;2023-08-31T15:22:51;23.40;97.50
6865;DHT22;3471;49.678;8.388;2023-08-31T15:25:16;23.30;97.50
6865;DHT22;3471;49.678;8.388;2023-08-31T15:27:42;23.20;98.20
6865;DHT22;3471;49.678;8.388;2023-08-31T15:30:08;23.10;98.30
6865;DHT22;3471;49.678;8.388;2023-08-31T15:32:35;23.10;97.90
6865;DHT22;3471;49.678;8.388;2023-08-31T15:35:01;22.90;98.10
6865;DHT22;3471;49.678;8.388;2023-08-31T15:37:27;22.90;98.50
6865;DHT22;3471;49.678;8.388;2023-08-31T15:39:52;22.80;98.80
6865;DHT22;3471;49.678;8.388;2023-08-31T15:42:18;22.80;98.90
6865;DHT22;3471;49.678;8.388;2023-08-31T15:44:44;22.70;98.10
6865;DHT22;3471;49.678;8.388;2023-08-31T15:47:09;22.50;97.20
6865;DHT22;3471;49.678;8.388;2023-08-31T15:49:35;22.30;97.50
6865;DHT22;3471;49.678;8.388;2023-08-31T15:52:02;22.10;96.40
6865;DHT22;3471;49.678;8.388;2023-08-31T15:54:29;22.00;97.30
6865;DHT22;3471;49.678;8.388;2023-08-31T15:56:55;21.90;97.90
6865;DHT22;3471;49.678;8.388;2023-08-31T15:59:20;21.80;97.70
6865;DHT22;3471;49.678;8.388;2023-08-31T16:01:46;21.70;97.90
6865;DHT22;3471;49.678;8.388;2023-08-31T16:04:12;21.70;98.70
6865;DHT22;3471;49.678;8.388;2023-08-31T16:06:37;21.60;98.80
6865;DHT22;3471;49.678;8.388;2023-08-31T16:09:05;21.50;99.10
6865;DHT22;3471;49.678;8.388;2023-08-31T16:11:31;21.50;99.60
6865;DHT22;3471;49.678;8.388;2023-08-31T16:13:57;21.50;99.90
6865;DHT22;3471;49.678;8.388;2023-08-31T16:16:23;21.40;99.90